Austin, Texas
Traffic Map
Current Weather Conditions
Austin, Texas
Clear
Clear
75°
Feels Like: 75°
Wind Chill: 75° Ceiling: Unl
Heat Index: 75° Visibility: 10mi
Dew Point: 54° Wind: 10mph
Humidity: 48% Direction: 170° (S)
Pressure: 30.03in Gusts: 22mph
Raw Report DataKATT 300051Z AUTO 17009G19KT 10SM CLR 24/12 A3003 RMK AO2 SLP162 T02390122
Traffic Incident Summary
Active as of:
Severity:
Category:
InformationThere was an issue retrieving the traffic information for this location. Please try a different location or try again shortly.
Advertisements
Track Severe Weather on mobile